M I D A S
Marine Information and Data Acquisition System
Tripno 68 of the Zeeleeuw from 2001-11-29 08:50:00 to 2001-11-29 17:00:00
Back to CruiseResearch ActivitiesStationsMapUnderway DataData graphs

EquipmentUnitsComments
TimeDGPSUTC
LatitudeDGPSDM.mWGS84
LongitudeDGPSDM.mWGS84
SpeedMeteo Stationm/sRelative wind speed
DirectionMeteo StationdegRelative wind direction
TemperatureMeteo Stationdeg CelciusAir temperature
PressureMeteo StationPaAtmospheric pressure
HumidityMeteo Station%Relative humidity
Missing or incorrect values are displayed as -999
Metereological data collected by the RV Zeeleeuw from 2001-11-29 08:50:00 to 2001-11-29 17:00:00
Time Latitude Longitude Speed Direction Temperature Pressure Humidity
2001-11-29 08:51 51°20.503 2°58.658 3.4 125 8.6 101430 92
2001-11-29 08:52 51°20.709 2°58.525 4.3 104 8.6 101430 92
2001-11-29 08:53 51°20.917 2°58.396 5.9 122 8.7 101420 92
2001-11-29 08:54 51°21.123 2°58.266 5.8 119 8.7 101420 92
2001-11-29 08:55 51°21.329 2°58.133 3.7 122 8.7 101420 92
2001-11-29 08:56 51°21.533 2°58.003 4.4 108 8.7 101420 92
2001-11-29 08:57 51°21.736 2°57.866 3.9 135 8.7 101410 92
2001-11-29 08:58 51°21.949 2°57.754 6.2 131 8.7 101410 92
2001-11-29 08:59 51°22.158 2°57.637 8 124 8.7 101400 92
2001-11-29 09:00 51°22.368 2°57.523 5 125 8.7 101400 92
2001-11-29 09:01 51°22.577 2°57.401 7 129 8.7 101380 92
2001-11-29 09:02 51°22.785 2°57.275 6.2 149 8.7 101380 92
2001-11-29 09:03 51°22.996 2°57.153 6.7 127 8.7 101390 92
2001-11-29 09:04 51°23.2 2°57.034 4.5 135 8.7 101390 92
2001-11-29 09:05 51°23.406 2°56.889 2.9 123 8.7 101380 92
2001-11-29 09:06 51°23.608 2°56.752 2 150 8.7 101370 92
2001-11-29 09:07 51°23.803 2°56.596 3.1 114 8.7 101360 92
2001-11-29 09:08 51°24 2°56.451 7.3 143 8.7 101370 92
2001-11-29 09:09 51°24.195 2°56.305 6.6 125 8.7 101360 92
2001-11-29 09:10 51°24.394 2°56.16 4.1 131 8.8 101360 92
2001-11-29 09:11 51°24.599 2°56.02 4.2 132 8.7 101350 92
2001-11-29 09:12 51°24.802 2°55.872 4 99 8.8 101350 92
2001-11-29 09:13 51°25.001 2°55.724 4.3 116 8.8 101360 92
2001-11-29 09:14 51°25.199 2°55.59 4.6 121 8.8 101360 92
2001-11-29 09:15 51°25.403 2°55.459 4.1 124 8.8 101350 92
2001-11-29 09:16 51°25.603 2°55.308 6.1 137 8.8 101340 92
2001-11-29 09:17 51°25.805 2°55.176 7.3 133 8.9 101350 92
2001-11-29 09:18 51°26.009 2°55.044 4.5 132 8.9 101340 92
2001-11-29 09:19 51°26.205 2°54.909 6.9 134 8.9 101340 92
2001-11-29 09:20 51°26.41 2°54.773 6.3 127 8.9 101340 92
2001-11-29 09:21 51°26.627 2°54.645 5.4 135 9 101320 92
2001-11-29 09:22 51°26.837 2°54.511 8.4 130 9 101320 92
2001-11-29 09:23 51°27.047 2°54.382 4.1 146 9 101320 92
2001-11-29 09:24 51°27.255 2°54.243 3.2 125 9 101330 92
2001-11-29 09:25 51°27.453 2°54.078 3 140 9 101320 92
2001-11-29 09:26 51°27.647 2°53.922 4 124 9 101330 92
2001-11-29 09:27 51°27.843 2°53.762 6.1 131 9.1 101310 92
2001-11-29 09:28 51°28.041 2°53.605 6.3 120 9.1 101300 92
2001-11-29 09:29 51°28.237 2°53.45 6.7 142 9.1 101300 92
2001-11-29 09:30 51°28.434 2°53.286 8.9 125 9.1 101300 92
2001-11-29 09:31 51°28.632 2°53.133 4 125 9.1 101280 92
2001-11-29 09:32 51°28.828 2°52.976 1.9 133 9.1 101290 92
2001-11-29 09:33 51°29.024 2°52.814 8.2 130 9.1 101290 92
2001-11-29 09:34 51°29.218 2°52.649 6 126 9.2 101290 92
2001-11-29 09:35 51°29.39 2°52.434 6.1 324 9.2 101270 92
2001-11-29 09:36 51°29.391 2°52.172 12.8 52 9.2 101220 92
2001-11-29 09:37 51°29.343 2°51.987 23.9 47 9.2 101210 92
2001-11-29 09:38 51°29.287 2°51.773 20.8 47 9.3 101220 92
2001-11-29 09:39 51°29.232 2°51.55 18.1 54 9.3 101200 92
2001-11-29 09:40 51°29.17 2°51.321 22.3 48 9.3 101200 92
2001-11-29 09:41 51°29.113 2°51.096 14 53 9.3 101180 92
2001-11-29 09:42 51°29.057 2°50.885 14.9 56 9.3 101190 92
2001-11-29 09:43 51°28.996 2°50.659 15.9 56 9.3 101190 92
2001-11-29 09:44 51°28.944 2°50.433 15.7 49 9.3 101180 92
2001-11-29 09:45 51°28.893 2°50.212 21.7 122 9.3 101200 92
2001-11-29 09:46 51°28.838 2°49.976 15.4 54 9.3 101190 92
2001-11-29 09:47 51°28.789 2°49.754 11.4 54 9.3 101180 92
2001-11-29 09:48 51°28.744 2°49.541 18.9 49 9.3 101170 92
2001-11-29 09:49 51°28.701 2°49.35 16.3 63 9.4 101160 92
2001-11-29 09:50 51°28.659 2°49.144 13 59 9.3 101170 92
2001-11-29 09:51 51°28.593 2°48.952 25.2 27 9.3 101180 92
2001-11-29 09:52 51°28.452 2°48.896 24.1 2 9.4 101220 92
2001-11-29 09:53 51°28.268 2°48.938 25.5 5 9.4 101190 92
2001-11-29 09:54 51°28.074 2°48.986 25.3 359 9.4 101170 92
2001-11-29 09:55 51°27.879 2°49.053 22.7 354 9.4 101210 92
2001-11-29 09:56 51°27.685 2°49.142 22.4 344 9.3 101170 92
2001-11-29 09:57 51°27.492 2°49.265 21.8 356 9.4 101170 92
2001-11-29 09:58 51°27.292 2°49.389 22 345 9.4 101170 92
2001-11-29 09:59 51°27.098 2°49.543 20.4 356 9.4 101170 92
2001-11-29 10:00 51°26.902 2°49.682 22 351 9.3 101170 92
2001-11-29 10:01 51°26.705 2°49.825 22.3 353 9.3 101170 92
2001-11-29 10:02 51°26.509 2°49.971 19.6 354 9.3 101160 92
2001-11-29 10:03 51°26.313 2°50.12 23.2 352 9.3 101160 92
2001-11-29 10:04 51°26.116 2°50.26 23.2 2 9.3 101180 92
2001-11-29 10:05 51°25.985 2°50.179 21.5 47 9.3 101210 92
2001-11-29 10:06 51°25.924 2°50.02 24.7 39 9.2 101180 92
2001-11-29 10:07 51°25.859 2°49.854 15.7 49 9.2 101170 92
2001-11-29 10:08 51°25.797 2°49.673 22 133 9.2 101170 92
2001-11-29 10:09 51°25.723 2°49.472 21.7 45 9.3 101180 92
2001-11-29 10:10 51°25.651 2°49.274 25.2 321 9.3 101150 92
2001-11-29 10:11 51°25.576 2°49.08 26.2 39 9.2 101160 92
2001-11-29 10:12 51°25.496 2°48.873 25.1 43 9.2 101160 92
2001-11-29 10:13 51°25.417 2°48.66 28.3 39 9.2 101140 92
2001-11-29 10:14 51°25.336 2°48.436 28.6 44 9.3 101150 92
2001-11-29 10:15 51°25.254 2°48.211 24.2 45 9.3 101150 92
2001-11-29 10:16 51°25.167 2°47.989 25.9 44 9.3 101160 92
2001-11-29 10:17 51°25.08 2°47.761 26.7 134 9.3 101170 92
2001-11-29 10:18 51°24.998 2°47.543 23.3 43 9.3 101140 92
2001-11-29 10:19 51°24.914 2°47.319 25.8 43 9.2 101140 93
2001-11-29 10:20 51°24.831 2°47.091 25 41 9.3 101160 93
2001-11-29 10:21 51°24.749 2°46.85 23.6 41 9.3 101130 93
2001-11-29 10:22 51°24.681 2°46.581 9 57 9.3 101110 93
2001-11-29 10:23 51°24.772 2°46.332 5.2 144 9.3 101150 93
2001-11-29 10:24 51°24.99 2°46.252 7.8 131 9.3 101210 93
2001-11-29 10:25 51°25.188 2°46.09 1.8 112 9.4 101210 93
2001-11-29 10:26 51°25.387 2°45.927 8.5 130 9.4 101190 93
2001-11-29 10:27 51°25.592 2°45.77 5.6 126 9.4 101200 93
2001-11-29 10:28 51°25.797 2°45.612 1.9 126 9.4 101190 93
2001-11-29 10:29 51°25.997 2°45.45 2.2 324 9.4 101180 93
2001-11-29 10:30 51°26.205 2°45.31 7.8 141 9.5 101190 93
2001-11-29 10:31 51°26.413 2°45.161 3 112 9.5 101180 93
2001-11-29 10:32 51°26.618 2°44.997 2.7 125 9.5 101170 93
2001-11-29 10:33 51°26.828 2°44.854 2.2 137 9.5 101180 93
2001-11-29 10:34 51°27.033 2°44.704 3.6 101 9.5 101180 93
2001-11-29 10:35 51°27.229 2°44.555 1.4 107 9.6 101170 93
2001-11-29 10:36 51°27.309 2°44.367 11.8 55 9.6 101140 93
2001-11-29 10:37 51°27.265 2°44.205 15.5 51 9.6 101130 93
2001-11-29 10:38 51°27.215 2°44.026 19.7 45 9.6 101120 93
2001-11-29 10:39 51°27.161 2°43.832 23.1 42 9.6 101090 93
2001-11-29 10:40 51°27.105 2°43.635 21.3 46 9.7 101110 93
2001-11-29 10:41 51°27.054 2°43.446 23.8 129 9.7 101070 93
2001-11-29 10:42 51°26.997 2°43.246 21.8 41 9.7 101100 93
2001-11-29 10:43 51°26.947 2°43.057 23.6 44 9.7 101110 93
2001-11-29 10:44 51°26.893 2°42.857 24.8 317 9.8 101100 93
2001-11-29 10:45 51°26.838 2°42.662 23.1 42 9.8 101090 93
2001-11-29 10:46 51°26.779 2°42.453 23.8 42 9.8 101080 93
2001-11-29 10:47 51°26.721 2°42.246 24 42 9.9 101080 93
2001-11-29 10:48 51°26.67 2°42.056 16.5 322 9.9 101080 93
2001-11-29 10:49 51°26.613 2°41.859 23.2 41 9.9 101090 93
2001-11-29 10:50 51°26.573 2°41.696 20.2 40 9.9 101080 93
2001-11-29 10:51 51°26.53 2°41.533 21.9 41 10 101100 94
2001-11-29 10:52 51°26.472 2°41.342 22.9 45 10 101080 94
2001-11-29 10:53 51°26.414 2°41.148 22.6 32 10.1 101070 94
2001-11-29 10:54 51°26.34 2°40.991 21.7 6 10.2 101100 94
2001-11-29 10:55 51°26.211 2°41.028 18.2 330 10.4 101080 94
2001-11-29 10:56 51°26.046 2°41.157 19.7 352 10.4 101040 94
2001-11-29 10:57 51°25.861 2°41.258 18 346 10.4 101040 94
2001-11-29 10:58 51°25.679 2°41.361 22.5 341 10.5 101020 94
2001-11-29 10:59 51°25.493 2°41.447 21.3 344 10.5 101040 94
2001-11-29 11:00 51°25.308 2°41.536 24.4 340 10.5 101030 93
2001-11-29 11:01 51°25.14 2°41.622 22.2 339 10.6 101060 93
2001-11-29 11:02 51°24.993 2°41.706 20.2 345 10.6 101060 93
2001-11-29 11:03 51°24.857 2°41.791 18.6 344 10.6 101060 93
2001-11-29 11:04 51°24.716 2°41.874 20.3 332 10.6 101040 93
2001-11-29 11:05 51°24.572 2°41.957 21.5 342 10.6 101060 92
2001-11-29 11:06 51°24.41 2°42.042 19.7 345 10.7 101050 92
2001-11-29 11:07 51°24.24 2°42.131 21.9 345 10.7 101040 92
2001-11-29 11:08 51°24.059 2°42.188 20.6 358 10.7 101040 91
2001-11-29 11:09 51°23.89 2°42.154 21.4 360 10.7 101060 91
2001-11-29 11:10 51°23.751 2°42.102 24.1 1 10.7 101060 92
2001-11-29 11:11 51°23.626 2°42.054 27.1 1 10.5 101070 92
2001-11-29 11:12 51°23.485 2°41.988 21.2 3 10.5 101060 92
2001-11-29 11:13 51°23.348 2°41.904 24.5 10 10.5 101050 93
2001-11-29 11:14 51°23.209 2°41.832 24.7 2 10.5 101060 93
2001-11-29 11:15 51°23.078 2°41.735 24.4 6 10.5 101040 93
2001-11-29 11:16 51°22.95 2°41.628 23.7 9 10.5 101050 93
2001-11-29 11:17 51°22.823 2°41.533 25.5 11 10.5 101070 93
2001-11-29 11:18 51°22.697 2°41.432 24.8 9 10.5 101060 92
2001-11-29 11:19 51°22.569 2°41.332 25.6 9 10.6 101080 92
2001-11-29 11:20 51°22.446 2°41.237 24.5 3 10.6 101050 92
2001-11-29 11:21 51°22.319 2°41.133 22.4 8 10.6 101060 92
2001-11-29 11:22 51°22.191 2°41.031 22.2 358 10.6 101050 91
2001-11-29 11:23 51°22.069 2°40.935 21.7 3 10.7 101060 91
2001-11-29 11:24 51°21.943 2°40.83 24.8 7 10.7 101060 91
2001-11-29 11:25 51°21.811 2°40.719 25 357 10.7 101070 91
2001-11-29 11:26 51°21.684 2°40.613 23.5 4 10.7 101060 91
2001-11-29 11:27 51°21.554 2°40.501 19.7 4 10.6 101050 92
2001-11-29 11:28 51°21.428 2°40.388 26.4 1 10.6 101050 92
2001-11-29 11:29 51°21.306 2°40.289 25.7 8 10.5 101060 92
2001-11-29 11:30 51°21.179 2°40.178 23.8 9 10.6 101040 92
2001-11-29 11:31 51°21.053 2°40.073 25.1 4 10.6 101030 92
2001-11-29 11:32 51°20.927 2°39.96 22.9 10 10.6 101060 92
2001-11-29 11:33 51°20.804 2°39.872 21.3 3 10.6 101040 92
2001-11-29 11:34 51°20.673 2°39.78 23.9 3 10.6 101050 92
2001-11-29 11:35 51°20.541 2°39.685 22.9 2 10.6 101060 92
2001-11-29 11:36 51°20.412 2°39.594 21.8 1 10.6 101060 91
2001-11-29 11:37 51°20.284 2°39.506 24.1 357 10.6 101070 91
2001-11-29 11:38 51°20.159 2°39.415 24.5 3 10.6 101060 91
2001-11-29 11:39 51°20.031 2°39.32 24.7 5 10.6 101040 91
2001-11-29 11:40 51°19.898 2°39.221 25.4 1 10.6 101050 91
2001-11-29 11:41 51°19.764 2°39.118 25.6 4 10.6 101040 91
2001-11-29 11:42 51°19.634 2°39.025 22.3 1 10.7 101060 91
2001-11-29 11:43 51°19.503 2°38.925 24 358 10.7 101050 91
2001-11-29 11:44 51°19.372 2°38.821 25.8 360 10.7 101040 91
2001-11-29 11:45 51°19.239 2°38.721 24.5 6 10.7 101040 91
2001-11-29 11:46 51°19.107 2°38.622 20.4 4 10.8 101030 91
2001-11-29 11:47 51°18.973 2°38.515 24.6   10.8 101060 91
2001-11-29 11:48 51°18.837 2°38.411 24.9 360 10.8 101040 91
2001-11-29 11:49 51°18.701 2°38.304 24.3 4 10.8 101010 90
2001-11-29 11:50 51°18.566 2°38.199 25.3 5 10.8 101020 90
2001-11-29 11:51 51°18.43 2°38.093 21.7 3 10.9 101040 90
2001-11-29 11:52 51°18.293 2°37.987 25.6 3 10.9 101050 90
2001-11-29 11:53 51°18.16 2°37.885 23.4 1 10.9 101030 90
2001-11-29 11:54 51°18.029 2°37.786 24.7 8 10.9 101030 90
2001-11-29 11:55 51°17.898 2°37.69 22.8 360 10.9 101020 90
2001-11-29 11:56 51°17.767 2°37.592 23.4 359 10.9 101040 90
2001-11-29 11:57 51°17.633 2°37.491 22.2 1 10.9 101030 90
2001-11-29 11:58 51°17.501 2°37.392 21.9 5 10.9 101030 90
2001-11-29 11:59 51°17.371 2°37.295 21.4 3 10.9 101040 90
2001-11-29 12:00 51°17.237 2°37.196 23.7 3 10.9 101030 90
2001-11-29 12:01 51°17.11 2°37.108 21.3 4 10.9 101050 91
2001-11-29 12:02 51°16.982 2°37.004 23.7 4 10.9 101030 91
2001-11-29 12:03 51°16.864 2°36.888 22.5 7 10.8 101030 91
2001-11-29 12:04 51°16.731 2°36.768 21.8 5 10.9 101030 91
2001-11-29 12:05 51°16.604 2°36.65 23.1 359 10.9 101010 91
2001-11-29 12:06 51°16.494 2°36.514 23.4 15 10.9 101030 91
2001-11-29 12:07 51°16.395 2°36.36 23.9 10 10.9 101000 91
2001-11-29 12:08 51°16.293 2°36.209 26.4 11 10.9 101030 90
2001-11-29 12:09 51°16.183 2°36.055 23.3 8 11 101030 90
2001-11-29 12:10 51°16.083 2°35.908 21.2 11 11 101010 90
2001-11-29 12:11 51°15.985 2°35.766 22.8 7 11 101030 90
2001-11-29 12:12 51°15.878 2°35.611 21.4 13 11 101020 90
2001-11-29 12:13 51°15.775 2°35.458 22.6 10 11 101010 90
2001-11-29 12:14 51°15.669 2°35.309 22.4 9 11 101010 90
2001-11-29 12:15 51°15.564 2°35.163 23.6 5 11 101040 91
2001-11-29 12:16 51°15.461 2°35.014 22.3 9 11 101010 91
2001-11-29 12:17 51°15.358 2°34.87 21.1 3 11 101000 91
2001-11-29 12:18 51°15.252 2°34.712 24 8 10.9 101020 91
2001-11-29 12:19 51°15.137 2°34.552 20.1 2 10.9 101010 92
2001-11-29 12:20 51°15.021 2°34.404 22.6 13 10.9 101010 92
2001-11-29 12:21 51°14.894 2°34.215 24.1 8 10.9 100990 92
2001-11-29 12:22 51°14.758 2°34.019 21.9 7 10.9 101010 92
2001-11-29 12:23 51°14.588 2°33.932 19.1 330 10.9 100980 92
2001-11-29 12:24 51°14.445 2°34.185 11.3 285 10.9 100970 92
2001-11-29 12:25 51°14.334 2°34.511 12.2 307 10.9 100990 92
2001-11-29 12:26 51°14.241 2°34.848 10.5 281 10.8 101000 92
2001-11-29 12:27 51°14.165 2°35.207 11.7 248 10.8 101010 92
2001-11-29 12:28 51°14.101 2°35.569 12.1 264 10.9 101010 92
2001-11-29 12:29 51°14.014 2°35.915 11.5 264 10.9 101000 92
2001-11-29 12:30 51°14.006 2°36.285 6.9 254 10.8 101050 91
2001-11-29 12:31 51°14.042 2°36.653 6.8 249 10.8 101050 91
2001-11-29 12:32 51°14.066 2°37.044 8.1 236 10.8 101050 91
2001-11-29 12:33 51°14.096 2°37.451 10.6 224 10.8 101050 91
2001-11-29 12:34 51°14.128 2°37.849 10.7 237 10.8 101050 91
2001-11-29 12:35 51°14.155 2°38.237 8.3 248 10.8 101050 91
2001-11-29 12:36 51°14.126 2°38.611 11.9 271 10.7 101030 91
2001-11-29 12:37 51°13.995 2°38.912 14.8 300 10.7 100990 91
2001-11-29 12:38 51°13.813 2°39.087 19.6 332 10.7 100980 91
2001-11-29 12:39 51°13.623 2°39.035 23.1 2 10.7 100990 91
2001-11-29 12:40 51°13.472 2°38.841 22.9 356 10.8 101020 91
2001-11-29 12:41 51°13.331 2°38.627 26.8 355 10.8 101000 91
2001-11-29 12:42 51°13.176 2°38.435 24.6 356 10.8 101000 91
2001-11-29 12:43 51°13.028 2°38.227 23.2 357 10.8 101010 91
2001-11-29 12:44 51°12.88 2°38.017 22.7 357 10.9 101010 90
2001-11-29 12:45 51°12.73 2°37.808 25.2 359 10.9 101010 90
2001-11-29 12:46 51°12.576 2°37.611 24.5 356 10.9 101000 90
2001-11-29 12:47 51°12.42 2°37.411 24.6 355 10.9 101020 90
2001-11-29 12:48 51°12.265 2°37.21 24.7 360 11 101010 90
2001-11-29 12:49 51°12.109 2°37.011 21.4 356 10.9 101020 90
2001-11-29 12:50 51°11.952 2°36.809 21.7 356 10.9 101010 90
2001-11-29 12:51 51°11.796 2°36.608 22.9 351 10.9 100990 90
2001-11-29 12:52 51°11.639 2°36.407 23.3 355 10.9 101000 90
2001-11-29 12:53 51°11.484 2°36.206 23.4 356 11 101010 90
2001-11-29 12:54 51°11.328 2°36.003 20.3 357 11 101010 90
2001-11-29 12:55 51°11.171 2°35.802 24.5 354 10.9 101010 90
2001-11-29 12:56 51°11.014 2°35.6 22.1 356 11 101000 90
2001-11-29 12:57 51°10.858 2°35.399 24.2 357 11 101000 90
2001-11-29 12:58 51°10.702 2°35.196 20 356 11 101010 90
2001-11-29 12:59 51°10.551 2°34.996 23.8 355 11 101020 91
2001-11-29 13:00 51°10.388 2°34.8 23.3 350 11 101010 91
2001-11-29 13:01 51°10.228 2°34.607 23.5 357 11 101000 91
2001-11-29 13:02 51°10.068 2°34.413 24.2 355 11 101010 91
2001-11-29 13:03 51°9.909 2°34.215 22.2 356 10.9 101010 91
2001-11-29 13:04 51°9.746 2°34.021 23.5 355 10.9 100990 91
2001-11-29 13:05 51°9.586 2°33.824 24   10.9 101000 91
2001-11-29 13:06 51°9.407 2°33.693 19.2 333 10.9 101010 91
2001-11-29 13:07 51°9.24 2°33.897 11.8 289 10.9 100980 91
2001-11-29 13:08 51°9.196 2°34.256 6.6 231 10.9 101030 91
2001-11-29 13:09 51°9.249 2°34.64 7 254 10.9 101050 91
2001-11-29 13:10 51°9.297 2°35.031 5.3 211 10.9 101050 91
2001-11-29 13:11 51°9.344 2°35.415 7.1 220 10.8 101050 91
2001-11-29 13:12 51°9.393 2°35.811 6 234 10.9 101050 91
2001-11-29 13:13 51°9.442 2°36.203 6.1 245 10.9 101040 91
2001-11-29 13:14 51°9.491 2°36.589 8.7 232 10.8 101040 91
2001-11-29 13:15 51°9.538 2°36.976 6.5 229 10.8 101030 91
2001-11-29 13:16 51°9.586 2°37.359 7.3 221 10.8 101030 91
2001-11-29 13:17 51°9.631 2°37.73 6.4 227 10.8 101040 91
2001-11-29 13:18 51°9.685 2°38.112 5.9 229 10.8 101040 91
2001-11-29 13:19 51°9.745 2°38.483 6.7 214 10.8 101050 91
2001-11-29 13:20 51°9.827 2°38.846 5.4 216 10.8 101040 91
2001-11-29 13:21 51°9.905 2°39.211 5.7 227 10.8 101040 91
2001-11-29 13:22 51°9.985 2°39.576 5 202 10.8 101040 91
2001-11-29 13:23 51°10.057 2°39.933 5.1 225 10.8 101030 91
2001-11-29 13:24 51°10.137 2°40.298 5.6 134 10.7 101030 91
2001-11-29 13:25 51°10.22 2°40.662 5.5 221 10.8 101030 91
2001-11-29 13:26 51°10.299 2°41.023 5.4 134 10.8 101030 91
2001-11-29 13:27 51°10.378 2°41.386 5.8 207 10.7 101030 91
2001-11-29 13:28 51°10.46 2°41.744 5.4 212 10.8 101030 91
2001-11-29 13:29 51°10.542 2°42.097 4.3 218 10.8 101030 91
2001-11-29 13:30 51°10.626 2°42.465 4.8 225 10.8 101030 91
2001-11-29 13:31 51°10.716 2°42.824 3.4 208 10.8 101030 91
2001-11-29 13:32 51°10.841 2°43.161 4.3 195 10.8 101030 91
2001-11-29 13:33 51°10.946 2°43.513 3.6 205 10.8 101030 91
2001-11-29 13:34 51°11.041 2°43.862 6.4 199 10.8 101020 91
2001-11-29 13:35 51°11.143 2°44.218 4.7 210 10.8 101020 91
2001-11-29 13:36 51°11.244 2°44.572 6 210 10.9 101020 91
2001-11-29 13:37 51°11.345 2°44.919 6.5 202 10.9 101020 91
2001-11-29 13:38 51°11.451 2°45.261 3.9 212 10.8 101020 91
2001-11-29 13:39 51°11.557 2°45.603 6.2 197 10.9 101020 91
2001-11-29 13:40 51°11.667 2°45.944 4.5 212 10.9 101030 91
2001-11-29 13:41 51°11.777 2°46.287 4.5 209 10.8 101020 91
2001-11-29 13:42 51°11.883 2°46.629 5 197 10.8 101030 91
2001-11-29 13:43 51°11.991 2°46.973 3.4 214 10.9 101020 91
2001-11-29 13:44 51°12.104 2°47.324 4 217 10.9 101020 91
2001-11-29 13:45 51°12.215 2°47.67 4.2 220 10.9 101010 91
2001-11-29 13:46 51°12.329 2°48.017 4.8 210 10.9 101020 91
2001-11-29 13:47 51°12.439 2°48.365 4.1 232 10.9 101010 91
2001-11-29 13:48 51°12.546 2°48.71 5.4 194 10.9 101010 91
2001-11-29 13:49 51°12.661 2°49.052 4 133 10.9 101010 91
2001-11-29 13:50 51°12.768 2°49.401 3.7 316 10.9 101010 91
2001-11-29 13:51 51°12.882 2°49.748 3.1 217 10.9 101010 91
2001-11-29 13:52 51°12.993 2°50.091 3.8 210 10.9 101000 91
2001-11-29 13:53 51°13.119 2°50.418 4.4 216 10.8 101000 91
2001-11-29 13:54 51°13.233 2°50.757 3.8 220 10.8 101000 91
2001-11-29 13:55 51°13.352 2°51.098 4.9 213 10.8 101000 91
2001-11-29 13:56 51°13.467 2°51.439 4.2 199 10.8 101000 91
2001-11-29 13:57 51°13.592 2°51.77 3.3 201 10.8 101000 91
2001-11-29 13:58 51°13.712 2°52.103 4.5 202 10.8 101000 91
2001-11-29 13:59 51°13.835 2°52.435 5 181 10.8 100990 91
2001-11-29 14:00 51°13.956 2°52.775 3.9 205 10.8 101000 91
2001-11-29 14:01 51°14.054 2°53.131 4.8 195 10.8 100990 91
2001-11-29 14:02 51°14.157 2°53.481 6.1 222 10.8 100990 91
2001-11-29 14:03 51°14.258 2°53.827 6.1 193 10.9 100990 91
2001-11-29 14:04 51°14.332 2°54.049 6.4 195 10.9 101000 91
2001-11-29 14:05 51°14.381 2°54.205 6.8 196 10.9 101000 91
2001-11-29 14:06 51°14.42 2°54.343 7 195 10.9 101000 91
2001-11-29 14:07 51°14.455 2°54.476 5.3 197 10.9 100990 91
2001-11-29 14:08 51°14.508 2°54.578 10.1 132 10.9 101000 91
2001-11-29 14:09 51°14.58 2°54.627 5.7 125 10.9 100990 91
2001-11-29 14:10 51°14.644 2°54.657 5.3 114 10.9 100980 91
2001-11-29 14:11 51°14.692 2°54.672 9 107 10.9 100970 90
2001-11-29 14:12 51°14.728 2°54.685 1.9 75 10.8 100980 91
2001-11-29 14:13 51°14.759 2°54.7 1.3 87 10.9 100980 91
2001-11-29 14:14 51°14.786 2°54.719 1.5 77 10.9 100970 91
2001-11-29 14:15 51°14.81 2°54.74 2.8 85 10.8 100970 91
2001-11-29 14:16 51°14.834 2°54.765 0.6 73 10.9 100970 91
2001-11-29 14:17 51°14.855 2°54.791 1.7 109 10.9 100970 91
2001-11-29 14:18 51°14.876 2°54.819 0.4 76 10.9 100970 91
2001-11-29 14:19 51°14.896 2°54.848 2.5 91 10.8 100980 91
2001-11-29 14:20 51°14.916 2°54.881 5.9 111 10.8 100980 91
2001-11-29 14:21 51°14.932 2°54.918 6.5 112 10.8 100960 91
2001-11-29 14:22 51°14.95 2°54.951 10.2 108 10.9 100970 91
2001-11-29 14:23 51°14.969 2°54.981 9 108 10.9 100960 91
2001-11-29 14:24 51°14.991 2°55.012 5.2 115 10.9 100950 91
2001-11-29 14:25 51°15.011 2°55.04 3.3 87 10.9 100970 91
2001-11-29 14:26 51°15.031 2°55.07 3.9 98 10.9 100970 91
2001-11-29 14:27 51°15.049 2°55.098 2.8 107 10.9 100970 90
2001-11-29 14:28 51°15.069 2°55.128 3.6 111 10.9 100970 91
2001-11-29 14:29 51°15.088 2°55.157 1.9 85 10.9 100970 91
2001-11-29 14:30 51°15.107 2°55.187 6.2 103 10.9 100960 91
2001-11-29 14:31 51°15.125 2°55.218 10.6 112 11 100950 91
2001-11-29 14:32 51°15.143 2°55.248 7.6 102 11 100960 91
2001-11-29 14:33 51°15.162 2°55.277 5.5 112 10.9 100970 90
2001-11-29 14:34 51°15.181 2°55.304 4.1 109 10.9 100960 90
2001-11-29 14:35 51°15.198 2°55.33 1.8 92 10.9 100960 91
2001-11-29 14:36 51°15.216 2°55.356 3.6 108 10.9 100970 90
2001-11-29 14:37 51°15.234 2°55.382 3.6 131 10.9 100970 91
2001-11-29 14:38 51°15.251 2°55.407 4.5 120 10.9 100970 91
2001-11-29 14:39 51°15.269 2°55.43 1.2 92 10.9 100970 91
2001-11-29 14:40 51°15.288 2°55.453 1.7 80 10.9 100950 91
2001-11-29 14:41 51°15.308 2°55.477 4.5 95 10.9 100960 91
2001-11-29 14:42 51°15.326 2°55.502 1.2 93 10.9 100950 91
2001-11-29 14:43 51°15.343 2°55.528 3 82 11 100940 91
2001-11-29 14:44 51°15.36 2°55.553 1.2 107 11 100950 90
2001-11-29 14:45 51°15.377 2°55.578 4.1 93 11 100950 91
2001-11-29 14:46 51°15.394 2°55.603 5.9 101 11 100950 90
2001-11-29 14:47 51°15.408 2°55.628 2.1 87 10.9 100950 90
2001-11-29 14:48 51°15.424 2°55.655 3 115 10.9 100950 90
2001-11-29 14:49 51°15.438 2°55.679 2.8 94 11 100940 91
2001-11-29 14:50 51°15.456 2°55.701 0.8 83 11 100960 90
2001-11-29 14:51 51°15.489 2°55.686 9.9 219 11.1 100950 90
2001-11-29 14:52 51°15.513 2°55.641 17.3 25 11 100940 90
2001-11-29 14:53 51°15.51 2°55.592 15 347 11.1 100940 90
2001-11-29 14:54 51°15.48 2°55.554 13.8 341 11.1 100940 90
2001-11-29 14:55 51°15.437 2°55.524 13.5 338 11.1 100930 90
2001-11-29 14:56 51°15.399 2°55.504 12.3 342 11 100950 90
2001-11-29 14:57 51°15.378 2°55.505 12.8 328 11.1 100930 90
2001-11-29 14:58 51°15.367 2°55.519 11.6 319 11.1 100920 90
2001-11-29 14:59 51°15.365 2°55.538 11.5 322 11.2 100930 90
2001-11-29 15:00 51°15.365 2°55.561 13 324 11.2 100930 89
2001-11-29 15:01 51°15.367 2°55.58 12.7 329 11.2 100940 90
2001-11-29 15:02 51°15.371 2°55.603 12.8 324 11.2 100930 89
2001-11-29 15:03 51°15.376 2°55.631 10.9 309 11.2 100930 90
2001-11-29 15:04 51°15.349 2°55.63 14.2 346 11.2 100910 89
2001-11-29 15:05 51°15.335 2°55.617 12.2 347 11.2 100940 89
2001-11-29 15:06 51°15.328 2°55.612 13 349 11.2 100950 89
2001-11-29 15:07 51°15.323 2°55.606 14.7 358 11.2 100950 89
2001-11-29 15:08 51°15.323 2°55.606 12.9 360 11.3 100950 89
2001-11-29 15:09 51°15.325 2°55.608 12 351 11.3 100960 89
2001-11-29 15:10 51°15.324 2°55.617 15.1 335 11.3 100940 89
2001-11-29 15:11 51°15.321 2°55.628 14 329 11.3 100930 89
2001-11-29 15:12 51°15.312 2°55.641 13 322 11.3 100930 89
2001-11-29 15:13 51°15.299 2°55.644 13.7 325 11.3 100930 89
2001-11-29 15:14 51°15.282 2°55.632 14.7 349 11.3 100920 90
2001-11-29 15:15 51°15.273 2°55.606 16.3 13 11.3 100930 90
2001-11-29 15:16 51°15.279 2°55.591 15 21 11.3 100940 90
2001-11-29 15:17 51°15.22 2°55.521 17 323 11.3 100930 90
2001-11-29 15:18 51°15.104 2°55.476 14.7 324 11.3 100900 90
2001-11-29 15:19 51°15.02 2°55.445 17.9 329 11.3 100890 90
2001-11-29 15:20 51°14.947 2°55.405 17.2 333 11.3 100910 90
2001-11-29 15:21 51°14.878 2°55.352 15.9 333 11.4 100900 90
2001-11-29 15:22 51°14.792 2°55.26 19.8 339 11.3 100920 90
2001-11-29 15:23 51°14.662 2°55.118 18.9 326 11.3 100970 90
2001-11-29 15:24 51°14.496 2°55.046 17 315 11.3 100940 90
2001-11-29 15:25 51°14.337 2°55.137 7.2 277 11.3 100930 91
2001-11-29 15:26 51°14.243 2°55.292 7.4 260 11.4 100960 91
2001-11-29 15:27 51°14.182 2°55.361 3.7 267 11.6 100970 91
2001-11-29 15:28 51°14.125 2°55.408 5.5 283 11.7 100970 91
2001-11-29 15:29 51°14.055 2°55.463 6.4 310 11.7 100970 91
2001-11-29 15:30 51°13.977 2°55.522 4.9 319 11.7 100980 91
2001-11-29 15:31 51°13.896 2°55.584 4.9 297 11.7 100980 91
2001-11-29 15:32 51°13.816 2°55.646 6 305 11.6 100980 91
2001-11-29 15:33 51°13.758 2°55.703 4.1 317 11.6 100990 91
2001-11-29 15:34 51°13.721 2°55.78 3 260 11.6 100980 91
2001-11-29 15:35 51°13.704 2°55.834 4 224 11.6 100990 91
2001-11-29 15:36 51°13.697 2°55.88 5.4 194 11.5 100980 91
2001-11-29 15:37 51°13.693 2°55.896 6.6 315 11.5 100980 91
2001-11-29 15:38 51°13.689 2°55.899 5.5 238 11.5 100980 91
2001-11-29 15:39 51°13.687 2°55.906 5.3 208 11.5 100980 91